KGMU/GMU METAR and TAF weather

Enter ICAO airport designator
Station Type Date Time Source
KGMU METAR 2019/10/18 10:53 UTC NOAA

KGMU 181053Z 08006KT 10SM CLR 09/03 A3003 RMK AO2 SLP165 T00940033


Station Type Date Time Source
KGMU Decoded METAR 2019/10/18 10:53 UTC NOAA

GREENVILLE DOWNTOWN AIRPORT , SC, United States (KGMU) 34-51N 82-21W 315M
Oct 18, 2019 - 06:53 AM EDT / 2019.10.18 1053 UTC
Wind: from the E (080 degrees) at 7 MPH (6 KT):0
Visibility: 10 mile(s):0
Sky conditions: clear
Temperature: 48.9 F (9.4 C)
Dew Point: 37.9 F (3.3 C)
Relative Humidity: 65%
Pressure (altimeter): 30.03 in. Hg (1016 hPa)
ob: KGMU 181053Z 08006KT 10SM CLR 09/03 A3003 RMK AO2 SLP165 T00940033
cycle: 11

Station Type Date Time Source
KGMU TAF 2019/10/18 09:24 UTC NOAA

TAF
AMD KGMU 180923Z 1809/1906 05007KT P6SM SKC
FM181700 14004KT P6SM SKC
FM190000 VRB03KT P6SM FEW250

Example: see airport list